createdAt,value
2022-11-27T00:04:55.000Z,97615
2022-11-27T00:09:55.000Z,97606
2022-11-27T00:14:55.000Z,97586
2022-11-27T00:19:55.000Z,97587
2022-11-27T00:24:55.000Z,97587
2022-11-27T00:29:55.000Z,97585
2022-11-27T00:34:55.000Z,97581
2022-11-27T00:39:55.000Z,97580
2022-11-27T00:44:55.000Z,97567
2022-11-27T00:49:55.000Z,97565
2022-11-27T00:54:55.000Z,97552
2022-11-27T00:59:55.000Z,97530
2022-11-27T01:04:55.000Z,97542
2022-11-27T01:09:55.000Z,97536
2022-11-27T01:14:55.000Z,97545
2022-11-27T01:19:55.000Z,97566
2022-11-27T01:24:55.000Z,97552
2022-11-27T01:29:55.000Z,97537
2022-11-27T01:34:55.000Z,97522
2022-11-27T01:39:55.000Z,97522
2022-11-27T01:44:55.000Z,97511
2022-11-27T01:49:55.000Z,97531
2022-11-27T01:54:55.000Z,97518
2022-11-27T01:59:55.000Z,97531
2022-11-27T02:04:55.000Z,97518
2022-11-27T02:09:55.000Z,97509
2022-11-27T02:14:55.000Z,97486
2022-11-27T02:19:55.000Z,97496
2022-11-27T02:24:55.000Z,97478
2022-11-27T02:29:55.000Z,97472
2022-11-27T02:34:55.000Z,97470
2022-11-27T02:39:55.000Z,97470
2022-11-27T02:44:55.000Z,97472
2022-11-27T02:49:55.000Z,97466
2022-11-27T02:54:55.000Z,97473
2022-11-27T02:59:55.000Z,97469
2022-11-27T03:04:55.000Z,97461
2022-11-27T03:09:55.000Z,97457
2022-11-27T03:14:55.000Z,97443
2022-11-27T03:19:55.000Z,97446
2022-11-27T03:24:55.000Z,97446
2022-11-27T03:29:55.000Z,97456
2022-11-27T03:34:55.000Z,97450
2022-11-27T03:39:55.000Z,97431
2022-11-27T03:44:55.000Z,97434
2022-11-27T03:49:55.000Z,97438
2022-11-27T03:54:55.000Z,97438
2022-11-27T03:59:55.000Z,97440
2022-11-27T04:04:55.000Z,97443
2022-11-27T04:09:55.000Z,97458
2022-11-27T04:14:55.000Z,97450
2022-11-27T04:19:55.000Z,97445
2022-11-27T04:24:55.000Z,97439
2022-11-27T04:29:55.000Z,97438
2022-11-27T04:34:55.000Z,97421
2022-11-27T04:39:55.000Z,97429
2022-11-27T04:44:55.000Z,97439
2022-11-27T04:49:55.000Z,97440
2022-11-27T04:54:55.000Z,97437
2022-11-27T04:59:55.000Z,97445
2022-11-27T05:04:55.000Z,97438
2022-11-27T05:09:55.000Z,97429
2022-11-27T05:14:55.000Z,97426
2022-11-27T05:19:55.000Z,97436
2022-11-27T05:24:55.000Z,97436
2022-11-27T05:29:55.000Z,97430
2022-11-27T05:34:55.000Z,97427
2022-11-27T05:39:55.000Z,97415
2022-11-27T05:44:55.000Z,97415
2022-11-27T05:49:55.000Z,97411
2022-11-27T05:54:55.000Z,97416
2022-11-27T05:59:55.000Z,97427
2022-11-27T06:04:55.000Z,97421
2022-11-27T06:09:55.000Z,97416
2022-11-27T06:14:55.000Z,97426
2022-11-27T06:19:55.000Z,97424
2022-11-27T06:24:55.000Z,97424
2022-11-27T06:29:55.000Z,97428
2022-11-27T06:34:55.000Z,97404
2022-11-27T06:39:55.000Z,97410
2022-11-27T06:44:55.000Z,97409
2022-11-27T06:49:55.000Z,97418
2022-11-27T06:54:55.000Z,97402
2022-11-27T06:59:55.000Z,97404
2022-11-27T07:04:55.000Z,97402
2022-11-27T07:09:55.000Z,97399
2022-11-27T07:14:55.000Z,97402
2022-11-27T07:19:55.000Z,97408
2022-11-27T07:24:55.000Z,97399
2022-11-27T07:29:55.000Z,97388
2022-11-27T07:34:55.000Z,97395
2022-11-27T07:39:55.000Z,97395
2022-11-27T07:44:55.000Z,97387
2022-11-27T07:49:55.000Z,97392
2022-11-27T07:54:55.000Z,97396
2022-11-27T07:59:55.000Z,97379
2022-11-27T08:04:55.000Z,97379
2022-11-27T08:09:55.000Z,97371
2022-11-27T08:14:55.000Z,97369
2022-11-27T08:19:55.000Z,97371
2022-11-27T08:24:55.000Z,97361
2022-11-27T08:29:55.000Z,97353
2022-11-27T08:34:55.000Z,97357
2022-11-27T08:39:55.000Z,97359
2022-11-27T08:44:55.000Z,97367
2022-11-27T08:49:55.000Z,97368
2022-11-27T08:54:55.000Z,97356
2022-11-27T08:59:55.000Z,97360
2022-11-27T09:04:55.000Z,97353
2022-11-27T09:09:55.000Z,97352
2022-11-27T09:14:55.000Z,97361
2022-11-27T09:19:55.000Z,97356
2022-11-27T09:24:55.000Z,97353
2022-11-27T09:29:55.000Z,97338
2022-11-27T09:34:55.000Z,97327
2022-11-27T09:39:55.000Z,97325
2022-11-27T09:44:55.000Z,97322
2022-11-27T09:49:55.000Z,97314
2022-11-27T09:54:55.000Z,97319
2022-11-27T09:59:55.000Z,97316
2022-11-27T10:04:55.000Z,97306
2022-11-27T10:09:55.000Z,97292
2022-11-27T10:14:55.000Z,97286
2022-11-27T10:19:55.000Z,97278
2022-11-27T10:24:55.000Z,97273
2022-11-27T10:29:55.000Z,97263
2022-11-27T10:34:55.000Z,97256
2022-11-27T10:39:55.000Z,97243
2022-11-27T10:44:55.000Z,97230
2022-11-27T10:49:55.000Z,97224
2022-11-27T10:54:55.000Z,97208
2022-11-27T10:59:55.000Z,97206
2022-11-27T11:04:55.000Z,97195
2022-11-27T11:09:55.000Z,97188
2022-11-27T11:14:55.000Z,97177
2022-11-27T11:19:55.000Z,97171
2022-11-27T11:24:55.000Z,97189
2022-11-27T11:29:55.000Z,97170
2022-11-27T11:34:55.000Z,97176
2022-11-27T11:39:55.000Z,97167
2022-11-27T11:44:55.000Z,97148
2022-11-27T11:49:55.000Z,97136
2022-11-27T11:54:55.000Z,97131
2022-11-27T11:59:55.000Z,97115
2022-11-27T12:04:55.000Z,97121
2022-11-27T12:09:55.000Z,97101
2022-11-27T12:14:55.000Z,97094
2022-11-27T12:19:55.000Z,97082
2022-11-27T12:24:55.000Z,97089
2022-11-27T12:29:55.000Z,97086
2022-11-27T12:34:55.000Z,97070
2022-11-27T12:39:55.000Z,97062
2022-11-27T12:44:55.000Z,97050
2022-11-27T12:49:55.000Z,97044
2022-11-27T12:54:55.000Z,97037
2022-11-27T12:59:55.000Z,97037
2022-11-27T13:04:55.000Z,97024
2022-11-27T13:09:55.000Z,97021
2022-11-27T13:14:55.000Z,97014
2022-11-27T13:19:55.000Z,96992
2022-11-27T13:24:55.000Z,96998
2022-11-27T13:29:55.000Z,97001
2022-11-27T13:34:55.000Z,96990
2022-11-27T13:39:55.000Z,96974
2022-11-27T13:44:55.000Z,96970
2022-11-27T13:49:55.000Z,96962
2022-11-27T13:54:55.000Z,96950
2022-11-27T13:59:55.000Z,96946
2022-11-27T14:04:55.000Z,96927
2022-11-27T14:09:55.000Z,96927
2022-11-27T14:14:55.000Z,96917
2022-11-27T14:19:55.000Z,96935
2022-11-27T14:24:55.000Z,96918
2022-11-27T14:29:55.000Z,96920
2022-11-27T14:34:55.000Z,96916
2022-11-27T14:39:55.000Z,96921
2022-11-27T14:44:55.000Z,96921
2022-11-27T14:49:55.000Z,96906
2022-11-27T14:54:55.000Z,96884
2022-11-27T14:59:55.000Z,96890
2022-11-27T15:04:55.000Z,96878
2022-11-27T15:09:55.000Z,96872
2022-11-27T15:14:55.000Z,96866
2022-11-27T15:19:55.000Z,96867
2022-11-27T15:24:55.000Z,96858
2022-11-27T15:29:55.000Z,96868
2022-11-27T15:34:55.000Z,96858
2022-11-27T15:39:55.000Z,96861
2022-11-27T15:44:55.000Z,96856
2022-11-27T15:49:55.000Z,96851
2022-11-27T15:54:55.000Z,96838
2022-11-27T15:59:55.000Z,96833
2022-11-27T16:04:55.000Z,96822
2022-11-27T16:09:55.000Z,96816
2022-11-27T16:14:55.000Z,96804
2022-11-27T16:19:55.000Z,96802
2022-11-27T16:24:55.000Z,96812
2022-11-27T16:29:55.000Z,96808
2022-11-27T16:34:55.000Z,96796
2022-11-27T16:39:55.000Z,96806
2022-11-27T16:44:55.000Z,96789
2022-11-27T16:49:55.000Z,96779
2022-11-27T16:54:55.000Z,96784
2022-11-27T16:59:55.000Z,96792
2022-11-27T17:04:55.000Z,96778
2022-11-27T17:09:55.000Z,96775
2022-11-27T17:14:55.000Z,96775
2022-11-27T17:19:55.000Z,96753
2022-11-27T17:24:55.000Z,96749
2022-11-27T17:29:55.000Z,96741
2022-11-27T17:34:55.000Z,96734
2022-11-27T17:39:55.000Z,96732
2022-11-27T17:44:55.000Z,96720
2022-11-27T17:49:55.000Z,96708
2022-11-27T17:54:55.000Z,96708
2022-11-27T17:59:55.000Z,96694
2022-11-27T18:04:55.000Z,96685
2022-11-27T18:09:55.000Z,96685
2022-11-27T18:14:55.000Z,96678
2022-11-27T18:19:55.000Z,96670
2022-11-27T18:24:55.000Z,96652
2022-11-27T18:29:55.000Z,96652
2022-11-27T18:34:55.000Z,96661
2022-11-27T18:39:55.000Z,96649
2022-11-27T18:44:55.000Z,96651
2022-11-27T18:49:55.000Z,96639
2022-11-27T18:54:55.000Z,96624
2022-11-27T18:59:55.000Z,96614
2022-11-27T19:04:55.000Z,96618
2022-11-27T19:09:55.000Z,96619
2022-11-27T19:15:00.000Z,96621
2022-11-27T19:20:00.000Z,96612
2022-11-27T19:25:00.000Z,96617
2022-11-27T19:30:00.000Z,96613
2022-11-27T19:35:00.000Z,96620
2022-11-27T19:40:00.000Z,96620
2022-11-27T19:45:00.000Z,96599
2022-11-27T19:50:00.000Z,96602
2022-11-27T19:55:00.000Z,96597
2022-11-27T20:00:00.000Z,96586
2022-11-27T20:05:00.000Z,96571
2022-11-27T20:10:00.000Z,96572
2022-11-27T20:15:00.000Z,96556
2022-11-27T20:20:00.000Z,96544
2022-11-27T20:25:00.000Z,96562
2022-11-27T20:30:00.000Z,96548
2022-11-27T20:35:00.000Z,96538
2022-11-27T20:40:00.000Z,96538
2022-11-27T20:45:00.000Z,96515
2022-11-27T20:50:00.000Z,96522
2022-11-27T20:55:00.000Z,96528
2022-11-27T21:00:00.000Z,96524
2022-11-27T21:05:00.000Z,96518
2022-11-27T21:10:00.000Z,96512
2022-11-27T21:15:00.000Z,96504
2022-11-27T21:20:00.000Z,96520
2022-11-27T21:25:00.000Z,96504
2022-11-27T21:30:00.000Z,96490
2022-11-27T21:35:00.000Z,96481
2022-11-27T21:40:00.000Z,96477
2022-11-27T21:45:00.000Z,96476
2022-11-27T21:50:00.000Z,96459
2022-11-27T21:55:00.000Z,96462
2022-11-27T22:00:00.000Z,96453
2022-11-27T22:05:00.000Z,96452
2022-11-27T22:10:00.000Z,96437
2022-11-27T22:15:00.000Z,96432
2022-11-27T22:20:00.000Z,96433
2022-11-27T22:25:00.000Z,96434
2022-11-27T22:30:00.000Z,96431
2022-11-27T22:35:00.000Z,96420
2022-11-27T22:40:00.000Z,96425
2022-11-27T22:45:00.000Z,96427
2022-11-27T22:50:00.000Z,96419
2022-11-27T22:55:00.000Z,96415
2022-11-27T23:00:00.000Z,96410
2022-11-27T23:05:00.000Z,96422
2022-11-27T23:10:06.000Z,96423
2022-11-27T23:15:02.000Z,96424
2022-11-27T23:20:03.000Z,96417
2022-11-27T23:25:03.000Z,96426
2022-11-27T23:30:03.000Z,96431
2022-11-27T23:35:03.000Z,96404
2022-11-27T23:40:06.000Z,96413
2022-11-27T23:45:07.000Z,96407
2022-11-27T23:50:06.000Z,96392
2022-11-27T23:55:05.000Z,96391
